AZU2575 SBCF-SBMO
Flight info
| Callsign | AZU2575 |
|---|---|
| Flight time | 2h 1m |
| Altitude | 39000 |
| Route | ILPIR UZ23 ANDIG |
| Aircraft | A20N/M-SDE2E3FGHIRWXY/LB1 |
Departure
| Time | 2026-04-25 19:29 |
|---|---|
| Airport | Tancredo Neves International Airport (SBCF) |
Arrival
| Time | 2026-04-25 21:31 |
|---|---|
| Airport | Zumbi dos Palmares International Airport (SBMO) |
| Time | Latitude | Longitude | Altitude | Speed | Heading |
|---|---|---|---|---|---|
| 2026-04-25 18:53 | -19.62921 | -43.96743 | 2816 ft | 0 kts | 45° |
| 2026-04-25 19:13 | -19.62927 | -43.96749 | 2810 ft | 1 kts | 45° |
| 2026-04-25 19:13 | -19.62932 | -43.96755 | 2815 ft | 1 kts | 45° |
| 2026-04-25 19:14 | -19.62938 | -43.96761 | 2816 ft | 1 kts | 45° |
| 2026-04-25 19:14 | -19.62941 | -43.96765 | 2816 ft | 1 kts | 45° |
| 2026-04-25 19:14 | -19.62948 | -43.96772 | 2816 ft | 1 kts | 58° |
| 2026-04-25 19:14 | -19.62952 | -43.96779 | 2813 ft | 1 kts | 79° |
| 2026-04-25 19:15 | -19.62953 | -43.96788 | 2813 ft | 1 kts | 108° |
| 2026-04-25 19:15 | -19.62951 | -43.96794 | 2816 ft | 0 kts | 136° |
| 2026-04-25 19:21 | -19.62956 | -43.96789 | 2814 ft | 2 kts | 137° |
| 2026-04-25 19:21 | -19.63011 | -43.96739 | 2810 ft | 8 kts | 141° |
| 2026-04-25 19:21 | -19.63064 | -43.96697 | 2813 ft | 11 kts | 142° |
| 2026-04-25 19:22 | -19.63128 | -43.96642 | 2814 ft | 13 kts | 141° |
| 2026-04-25 19:22 | -19.63206 | -43.96634 | 2815 ft | 12 kts | 224° |
| 2026-04-25 19:22 | -19.63344 | -43.96672 | 2811 ft | 13 kts | 142° |
| 2026-04-25 19:23 | -19.63419 | -43.96606 | 2811 ft | 15 kts | 138° |
| 2026-04-25 19:23 | -19.63597 | -43.96439 | 2815 ft | 19 kts | 139° |
| 2026-04-25 19:23 | -19.63701 | -43.96345 | 2813 ft | 20 kts | 139° |
| 2026-04-25 19:24 | -19.63810 | -43.96245 | 2815 ft | 22 kts | 140° |
| 2026-04-25 19:24 | -19.63928 | -43.96137 | 2819 ft | 23 kts | 136° |
| 2026-04-25 19:24 | -19.64169 | -43.95908 | 2817 ft | 15 kts | 140° |
| 2026-04-25 19:25 | -19.64260 | -43.95829 | 2815 ft | 9 kts | 140° |
| 2026-04-25 19:25 | -19.64314 | -43.95781 | 2819 ft | 11 kts | 140° |
| 2026-04-25 19:25 | -19.64381 | -43.95722 | 2817 ft | 14 kts | 140° |
| 2026-04-25 19:26 | -19.64456 | -43.95647 | 2817 ft | 16 kts | 137° |
| 2026-04-25 19:26 | -19.64542 | -43.95564 | 2820 ft | 18 kts | 139° |
| 2026-04-25 19:26 | -19.64613 | -43.95501 | 2816 ft | 9 kts | 140° |
| 2026-04-25 19:26 | -19.64666 | -43.95454 | 2817 ft | 11 kts | 140° |
| 2026-04-25 19:27 | -19.64725 | -43.95427 | 2821 ft | 7 kts | 192° |
| 2026-04-25 19:27 | -19.64739 | -43.95436 | 2819 ft | 6 kts | 220° |
| 2026-04-25 19:27 | -19.64748 | -43.95449 | 2818 ft | 1 kts | 235° |
| 2026-04-25 19:27 | -19.64759 | -43.95466 | 2819 ft | 4 kts | 239° |
| 2026-04-25 19:28 | -19.64768 | -43.95505 | 2818 ft | 7 kts | 265° |
| 2026-04-25 19:28 | -19.64765 | -43.95568 | 2819 ft | 10 kts | 287° |
| 2026-04-25 19:28 | -19.64708 | -43.95636 | 2817 ft | 20 kts | 318° |
| 2026-04-25 19:28 | -19.64424 | -43.95902 | 2815 ft | 89 kts | 317° |
| 2026-04-25 19:29 | -19.63809 | -43.96471 | 2816 ft | 143 kts | 319° |
| 2026-04-25 19:29 | -19.62944 | -43.97252 | 2931 ft | 177 kts | 317° |
| 2026-04-25 19:29 | -19.61988 | -43.98117 | 3617 ft | 182 kts | 317° |
| 2026-04-25 19:29 | -19.61028 | -43.98994 | 4376 ft | 178 kts | 314° |
| 2026-04-25 19:30 | -19.60169 | -43.99922 | 5036 ft | 181 kts | 310° |
| 2026-04-25 19:30 | -19.59267 | -44.00971 | 5425 ft | 202 kts | 310° |
| 2026-04-25 19:30 | -19.58259 | -44.02142 | 5791 ft | 228 kts | 311° |
| 2026-04-25 19:30 | -19.57119 | -44.03429 | 6343 ft | 248 kts | 312° |
| 2026-04-25 19:31 | -19.55902 | -44.04773 | 7124 ft | 255 kts | 312° |
| 2026-04-25 19:31 | -19.54557 | -44.05991 | 7662 ft | 257 kts | 330° |
| 2026-04-25 19:31 | -19.52824 | -44.06486 | 7839 ft | 263 kts | 358° |
| 2026-04-25 19:31 | -19.51030 | -44.06067 | 7978 ft | 269 kts | 25° |
| 2026-04-25 19:32 | -19.49604 | -44.04805 | 7982 ft | 269 kts | 54° |
| 2026-04-25 19:32 | -19.48906 | -44.02978 | 8051 ft | 272 kts | 83° |
| 2026-04-25 19:32 | -19.48999 | -44.00953 | 8471 ft | 278 kts | 98° |
| 2026-04-25 19:32 | -19.49086 | -44.00294 | 8754 ft | 279 kts | 97° |
| 2026-04-25 19:33 | -19.49251 | -43.96914 | 10372 ft | 277 kts | 86° |
| 2026-04-25 19:33 | -19.49075 | -43.94862 | 11125 ft | 282 kts | 82° |
| 2026-04-25 19:33 | -19.48761 | -43.92786 | 11856 ft | 288 kts | 79° |
| 2026-04-25 19:33 | -19.48377 | -43.90683 | 12612 ft | 291 kts | 79° |
| 2026-04-25 19:34 | -19.47970 | -43.88574 | 13387 ft | 294 kts | 79° |
| 2026-04-25 19:34 | -19.47506 | -43.86442 | 14052 ft | 299 kts | 73° |
| 2026-04-25 19:34 | -19.46718 | -43.84383 | 14692 ft | 303 kts | 64° |
| 2026-04-25 19:34 | -19.45769 | -43.82317 | 14994 ft | 322 kts | 64° |
| 2026-04-25 19:35 | -19.44771 | -43.80108 | 15157 ft | 343 kts | 65° |
| 2026-04-25 19:35 | -19.43732 | -43.77788 | 15338 ft | 362 kts | 65° |
| 2026-04-25 19:35 | -19.42625 | -43.75315 | 15519 ft | 380 kts | 65° |
| 2026-04-25 19:35 | -19.41477 | -43.72750 | 15929 ft | 388 kts | 65° |
| 2026-04-25 19:36 | -19.40320 | -43.70166 | 16618 ft | 388 kts | 65° |
| 2026-04-25 19:36 | -19.39294 | -43.67500 | 17165 ft | 393 kts | 69° |
| 2026-04-25 19:36 | -19.38317 | -43.64779 | 17725 ft | 396 kts | 69° |
| 2026-04-25 19:36 | -19.37337 | -43.62057 | 18344 ft | 398 kts | 70° |
| 2026-04-25 19:37 | -19.36339 | -43.59291 | 18727 ft | 404 kts | 70° |
| 2026-04-25 19:37 | -19.35332 | -43.56505 | 19289 ft | 405 kts | 70° |
| 2026-04-25 19:37 | -19.34320 | -43.53708 | 19696 ft | 410 kts | 70° |
| 2026-04-25 19:37 | -19.33296 | -43.50880 | 20192 ft | 412 kts | 70° |
| 2026-04-25 19:38 | -19.32251 | -43.48037 | 20650 ft | 417 kts | 66° |
| 2026-04-25 19:38 | -19.30814 | -43.45359 | 21129 ft | 420 kts | 54° |
| 2026-04-25 19:38 | -19.28879 | -43.43042 | 21598 ft | 423 kts | 42° |
| 2026-04-25 19:38 | -19.26556 | -43.41115 | 22047 ft | 426 kts | 36° |
| 2026-04-25 19:39 | -19.24172 | -43.39233 | 22497 ft | 429 kts | 36° |
| 2026-04-25 19:39 | -19.21803 | -43.37358 | 22935 ft | 432 kts | 37° |
| 2026-04-25 19:39 | -19.19387 | -43.35441 | 23364 ft | 436 kts | 37° |
| 2026-04-25 19:39 | -19.16945 | -43.33502 | 23771 ft | 439 kts | 37° |
| 2026-04-25 19:40 | -19.14489 | -43.31552 | 24166 ft | 442 kts | 37° |
| 2026-04-25 19:40 | -19.12033 | -43.29604 | 24580 ft | 444 kts | 37° |
| 2026-04-25 19:40 | -19.10385 | -43.28296 | 24822 ft | 446 kts | 36° |
| 2026-04-25 19:40 | -19.07052 | -43.25655 | 25326 ft | 449 kts | 36° |
| 2026-04-25 19:41 | -19.05393 | -43.24339 | 25579 ft | 450 kts | 36° |
| 2026-04-25 19:41 | -19.02876 | -43.22346 | 25944 ft | 453 kts | 36° |
| 2026-04-25 19:41 | -19.00346 | -43.20342 | 26301 ft | 455 kts | 36° |
| 2026-04-25 19:41 | -18.98668 | -43.19015 | 26539 ft | 457 kts | 36° |
| 2026-04-25 19:42 | -18.95247 | -43.16308 | 27018 ft | 460 kts | 36° |
| 2026-04-25 19:42 | -18.92675 | -43.14273 | 27357 ft | 462 kts | 36° |
| 2026-04-25 19:42 | -18.89256 | -43.11570 | 27792 ft | 465 kts | 36° |
| 2026-04-25 19:42 | -18.87502 | -43.10184 | 28014 ft | 467 kts | 36° |
| 2026-04-25 19:43 | -18.84888 | -43.08119 | 28344 ft | 469 kts | 36° |
| 2026-04-25 19:43 | -18.82268 | -43.06049 | 28680 ft | 471 kts | 36° |
| 2026-04-25 19:43 | -18.79642 | -43.03976 | 29032 ft | 472 kts | 36° |
| 2026-04-25 19:43 | -18.77004 | -43.01894 | 29334 ft | 475 kts | 36° |
| 2026-04-25 19:44 | -18.74351 | -42.99797 | 29634 ft | 477 kts | 36° |
| 2026-04-25 19:44 | -18.71723 | -42.97721 | 29946 ft | 479 kts | 36° |
| 2026-04-25 19:44 | -18.69047 | -42.95607 | 30222 ft | 481 kts | 36° |
| 2026-04-25 19:44 | -18.66357 | -42.93484 | 30511 ft | 483 kts | 36° |
| 2026-04-25 19:45 | -18.63660 | -42.91356 | 30804 ft | 484 kts | 36° |
| 2026-04-25 19:45 | -18.60958 | -42.89225 | 31131 ft | 484 kts | 36° |
| 2026-04-25 19:45 | -18.58264 | -42.87101 | 31567 ft | 482 kts | 36° |
| 2026-04-25 19:45 | -18.55580 | -42.84986 | 31958 ft | 481 kts | 36° |
| 2026-04-25 19:46 | -18.52901 | -42.82877 | 32348 ft | 480 kts | 36° |
| 2026-04-25 19:46 | -18.50232 | -42.80778 | 32731 ft | 479 kts | 36° |
| 2026-04-25 19:46 | -18.47598 | -42.78708 | 33107 ft | 477 kts | 36° |
| 2026-04-25 19:46 | -18.44936 | -42.76617 | 33479 ft | 476 kts | 36° |
| 2026-04-25 19:47 | -18.42279 | -42.74530 | 33838 ft | 475 kts | 36° |
| 2026-04-25 19:47 | -18.39630 | -42.72452 | 34186 ft | 473 kts | 36° |
| 2026-04-25 19:47 | -18.37000 | -42.70388 | 34507 ft | 472 kts | 36° |
| 2026-04-25 19:47 | -18.34366 | -42.68322 | 34793 ft | 471 kts | 36° |
| 2026-04-25 19:48 | -18.31740 | -42.66263 | 35076 ft | 470 kts | 36° |
| 2026-04-25 19:48 | -18.29115 | -42.64205 | 35357 ft | 469 kts | 36° |
| 2026-04-25 19:48 | -18.26503 | -42.62158 | 35640 ft | 468 kts | 36° |
| 2026-04-25 19:48 | -18.23884 | -42.60106 | 35918 ft | 468 kts | 36° |
| 2026-04-25 19:49 | -18.21274 | -42.58063 | 36186 ft | 467 kts | 36° |
| 2026-04-25 19:49 | -18.19549 | -42.56713 | 36370 ft | 466 kts | 36° |
| 2026-04-25 19:49 | -18.16114 | -42.54026 | 36751 ft | 464 kts | 36° |
| 2026-04-25 19:49 | -18.13515 | -42.51993 | 36986 ft | 464 kts | 36° |
| 2026-04-25 19:50 | -18.08341 | -42.47950 | 37447 ft | 462 kts | 36° |
| 2026-04-25 19:50 | -18.05760 | -42.45934 | 37693 ft | 462 kts | 36° |
| 2026-04-25 19:50 | -18.03182 | -42.43921 | 37895 ft | 461 kts | 36° |
| 2026-04-25 19:51 | -18.00610 | -42.41914 | 38105 ft | 461 kts | 36° |
| 2026-04-25 19:51 | -17.98035 | -42.39905 | 38302 ft | 460 kts | 36° |
| 2026-04-25 19:51 | -17.95463 | -42.37899 | 38486 ft | 460 kts | 36° |
| 2026-04-25 19:51 | -17.92893 | -42.35895 | 38668 ft | 460 kts | 36° |
| 2026-04-25 19:52 | -17.90332 | -42.33899 | 38829 ft | 459 kts | 36° |
| 2026-04-25 19:52 | -17.87789 | -42.31918 | 38968 ft | 459 kts | 36° |
| 2026-04-25 19:52 | -17.85227 | -42.29923 | 38995 ft | 459 kts | 36° |
| 2026-04-25 19:53 | -17.80110 | -42.25941 | 39004 ft | 457 kts | 36° |
| 2026-04-25 19:53 | -17.74992 | -42.21960 | 39002 ft | 458 kts | 35° |
| 2026-04-25 19:54 | -17.69865 | -42.17975 | 39002 ft | 458 kts | 36° |
| 2026-04-25 19:54 | -17.64771 | -42.14020 | 39004 ft | 458 kts | 35° |
| 2026-04-25 19:55 | -17.59651 | -42.10046 | 39004 ft | 458 kts | 35° |
| 2026-04-25 19:55 | -17.54533 | -42.06077 | 39002 ft | 458 kts | 35° |
| 2026-04-25 19:56 | -17.49401 | -42.02100 | 39004 ft | 458 kts | 35° |
| 2026-04-25 19:56 | -17.44276 | -41.98130 | 39004 ft | 458 kts | 35° |
| 2026-04-25 19:57 | -17.39162 | -41.94167 | 39005 ft | 458 kts | 35° |
| 2026-04-25 19:57 | -17.34020 | -41.90185 | 39004 ft | 458 kts | 36° |
| 2026-04-25 19:58 | -17.28894 | -41.86218 | 39000 ft | 458 kts | 36° |
| 2026-04-25 19:58 | -17.23762 | -41.82249 | 39006 ft | 458 kts | 36° |
| 2026-04-25 19:59 | -17.18656 | -41.78304 | 39004 ft | 459 kts | 36° |
| 2026-04-25 19:59 | -17.13518 | -41.74337 | 39005 ft | 459 kts | 36° |
| 2026-04-25 20:00 | -17.08380 | -41.70373 | 39008 ft | 459 kts | 36° |
| 2026-04-25 20:00 | -17.03240 | -41.66409 | 39008 ft | 459 kts | 36° |
| 2026-04-25 20:01 | -16.95543 | -41.60479 | 39009 ft | 458 kts | 36° |
| 2026-04-25 20:01 | -16.90433 | -41.56546 | 39008 ft | 458 kts | 36° |
| 2026-04-25 20:02 | -16.85302 | -41.52599 | 39000 ft | 458 kts | 36° |
| 2026-04-25 20:02 | -16.80166 | -41.48650 | 39004 ft | 458 kts | 36° |
| 2026-04-25 20:03 | -16.75030 | -41.44706 | 39003 ft | 458 kts | 36° |
| 2026-04-25 20:03 | -16.69895 | -41.40763 | 38996 ft | 457 kts | 36° |
| 2026-04-25 20:04 | -16.64784 | -41.36813 | 39008 ft | 457 kts | 36° |
| 2026-04-25 20:04 | -16.59712 | -41.32869 | 38996 ft | 457 kts | 36° |
| 2026-04-25 20:05 | -16.54614 | -41.28912 | 38995 ft | 457 kts | 36° |
| 2026-04-25 20:05 | -16.49512 | -41.24960 | 38996 ft | 456 kts | 36° |
| 2026-04-25 20:06 | -16.44418 | -41.21016 | 38997 ft | 456 kts | 36° |
| 2026-04-25 20:06 | -16.39323 | -41.17074 | 38997 ft | 456 kts | 36° |
| 2026-04-25 20:07 | -16.34224 | -41.13132 | 39001 ft | 456 kts | 36° |
| 2026-04-25 20:07 | -16.29125 | -41.09192 | 39003 ft | 456 kts | 36° |
| 2026-04-25 20:08 | -16.24056 | -41.05278 | 39006 ft | 456 kts | 36° |
| 2026-04-25 20:08 | -16.18972 | -41.01355 | 39006 ft | 454 kts | 36° |
| 2026-04-25 20:09 | -16.13886 | -40.97433 | 39012 ft | 455 kts | 36° |
| 2026-04-25 20:09 | -16.08798 | -40.93512 | 39013 ft | 455 kts | 36° |
| 2026-04-25 20:10 | -16.03699 | -40.89585 | 39015 ft | 456 kts | 36° |
| 2026-04-25 20:10 | -15.98609 | -40.85668 | 39015 ft | 453 kts | 37° |
| 2026-04-25 20:11 | -15.93549 | -40.81776 | 39015 ft | 454 kts | 37° |
| 2026-04-25 20:11 | -15.88469 | -40.77871 | 39020 ft | 454 kts | 37° |
| 2026-04-25 20:12 | -15.83429 | -40.73999 | 39017 ft | 453 kts | 37° |
| 2026-04-25 20:12 | -15.80036 | -40.71394 | 39018 ft | 453 kts | 37° |
| 2026-04-25 20:13 | -15.73283 | -40.66213 | 39019 ft | 455 kts | 37° |
| 2026-04-25 20:13 | -15.68200 | -40.62316 | 39018 ft | 454 kts | 37° |
| 2026-04-25 20:14 | -15.63153 | -40.58449 | 39018 ft | 453 kts | 37° |
| 2026-04-25 20:14 | -15.58077 | -40.54562 | 39015 ft | 454 kts | 37° |
| 2026-04-25 20:15 | -15.53029 | -40.50700 | 39014 ft | 448 kts | 37° |
| 2026-04-25 20:15 | -15.47994 | -40.46849 | 39012 ft | 451 kts | 37° |
| 2026-04-25 20:16 | -15.42921 | -40.42971 | 39012 ft | 453 kts | 37° |
| 2026-04-25 20:16 | -15.37885 | -40.39124 | 39012 ft | 452 kts | 37° |
| 2026-04-25 20:17 | -15.32816 | -40.35255 | 39012 ft | 451 kts | 37° |
| 2026-04-25 20:17 | -15.27793 | -40.31423 | 39013 ft | 448 kts | 37° |
| 2026-04-25 20:18 | -15.22760 | -40.27586 | 39012 ft | 449 kts | 37° |
| 2026-04-25 20:18 | -15.17719 | -40.23746 | 39012 ft | 451 kts | 37° |
| 2026-04-25 20:19 | -15.12662 | -40.19896 | 39019 ft | 451 kts | 37° |
| 2026-04-25 20:19 | -15.07612 | -40.16056 | 39018 ft | 449 kts | 37° |
| 2026-04-25 20:20 | -15.02582 | -40.12230 | 39021 ft | 449 kts | 37° |
| 2026-04-25 20:20 | -14.97551 | -40.08406 | 39018 ft | 449 kts | 37° |
| 2026-04-25 20:21 | -14.92552 | -40.04609 | 39023 ft | 448 kts | 37° |
| 2026-04-25 20:21 | -14.87513 | -40.00784 | 39019 ft | 451 kts | 37° |
| 2026-04-25 20:22 | -14.84128 | -39.98216 | 39024 ft | 448 kts | 37° |
| 2026-04-25 20:22 | -14.77459 | -39.93160 | 39025 ft | 447 kts | 37° |
| 2026-04-25 20:23 | -14.72441 | -39.89358 | 39023 ft | 447 kts | 37° |
| 2026-04-25 20:23 | -14.67420 | -39.85556 | 39024 ft | 447 kts | 37° |
| 2026-04-25 20:24 | -14.62398 | -39.81755 | 39018 ft | 447 kts | 37° |
| 2026-04-25 20:24 | -14.57381 | -39.77962 | 39008 ft | 447 kts | 37° |
| 2026-04-25 20:25 | -14.52393 | -39.74190 | 39006 ft | 447 kts | 37° |
| 2026-04-25 20:25 | -14.47368 | -39.70394 | 39006 ft | 447 kts | 37° |
| 2026-04-25 20:26 | -14.42342 | -39.66599 | 39006 ft | 447 kts | 37° |
| 2026-04-25 20:26 | -14.37323 | -39.62811 | 39009 ft | 443 kts | 37° |
| 2026-04-25 20:27 | -14.32359 | -39.59067 | 39011 ft | 443 kts | 37° |
| 2026-04-25 20:27 | -14.27386 | -39.55328 | 39010 ft | 447 kts | 37° |
| 2026-04-25 20:28 | -14.22362 | -39.51566 | 39009 ft | 446 kts | 37° |
| 2026-04-25 20:28 | -14.18190 | -39.48442 | 39010 ft | 446 kts | 37° |
| 2026-04-25 20:29 | -14.13175 | -39.44688 | 39009 ft | 443 kts | 37° |
| 2026-04-25 20:29 | -14.08209 | -39.40972 | 39010 ft | 442 kts | 37° |
| 2026-04-25 20:30 | -14.03231 | -39.37247 | 39009 ft | 442 kts | 37° |
| 2026-04-25 20:30 | -13.98246 | -39.33520 | 39010 ft | 444 kts | 37° |
| 2026-04-25 20:31 | -13.93242 | -39.29781 | 39005 ft | 444 kts | 37° |
| 2026-04-25 20:31 | -13.88277 | -39.26074 | 39012 ft | 443 kts | 37° |
| 2026-04-25 20:32 | -13.83288 | -39.22351 | 39005 ft | 442 kts | 37° |
| 2026-04-25 20:32 | -13.78313 | -39.18639 | 39001 ft | 441 kts | 37° |
| 2026-04-25 20:33 | -13.73342 | -39.14933 | 38996 ft | 441 kts | 37° |
| 2026-04-25 20:33 | -13.69214 | -39.11857 | 38987 ft | 440 kts | 37° |
| 2026-04-25 20:34 | -13.63447 | -39.07562 | 38994 ft | 439 kts | 37° |
| 2026-04-25 20:34 | -13.58496 | -39.03876 | 38991 ft | 439 kts | 37° |
| 2026-04-25 20:35 | -13.53533 | -39.00199 | 38985 ft | 439 kts | 37° |
| 2026-04-25 20:35 | -13.48602 | -38.96552 | 38984 ft | 438 kts | 37° |
| 2026-04-25 20:36 | -13.43656 | -38.92893 | 38980 ft | 438 kts | 37° |
| 2026-04-25 20:36 | -13.38702 | -38.89229 | 38981 ft | 438 kts | 37° |
| 2026-04-25 20:37 | -13.33744 | -38.85564 | 38982 ft | 439 kts | 37° |
| 2026-04-25 20:37 | -13.28785 | -38.81901 | 38984 ft | 439 kts | 37° |
| 2026-04-25 20:38 | -13.23821 | -38.78236 | 38986 ft | 439 kts | 37° |
| 2026-04-25 20:38 | -13.18892 | -38.74598 | 38989 ft | 439 kts | 37° |
| 2026-04-25 20:39 | -13.13925 | -38.70933 | 38996 ft | 440 kts | 37° |
| 2026-04-25 20:39 | -13.09766 | -38.67867 | 38998 ft | 440 kts | 37° |
| 2026-04-25 20:40 | -13.03988 | -38.63610 | 38992 ft | 440 kts | 37° |
| 2026-04-25 20:40 | -12.99006 | -38.59940 | 38994 ft | 441 kts | 37° |
| 2026-04-25 20:41 | -12.94025 | -38.56274 | 38993 ft | 441 kts | 37° |
| 2026-04-25 20:41 | -12.89043 | -38.52608 | 38996 ft | 441 kts | 36° |
| 2026-04-25 20:42 | -12.84055 | -38.48940 | 38999 ft | 441 kts | 36° |
| 2026-04-25 20:42 | -12.79094 | -38.45294 | 38998 ft | 441 kts | 36° |
| 2026-04-25 20:43 | -12.74099 | -38.41625 | 38979 ft | 441 kts | 37° |
| 2026-04-25 20:43 | -12.69108 | -38.37960 | 38981 ft | 441 kts | 37° |
| 2026-04-25 20:44 | -12.64117 | -38.34295 | 38992 ft | 441 kts | 36° |
| 2026-04-25 20:44 | -12.59115 | -38.30626 | 38992 ft | 441 kts | 36° |
| 2026-04-25 20:45 | -12.54143 | -38.26981 | 38994 ft | 442 kts | 36° |
| 2026-04-25 20:45 | -12.49147 | -38.23320 | 38994 ft | 442 kts | 36° |
| 2026-04-25 20:46 | -12.44148 | -38.19659 | 38994 ft | 442 kts | 36° |
| 2026-04-25 20:46 | -12.39139 | -38.15991 | 38989 ft | 442 kts | 36° |
| 2026-04-25 20:47 | -12.34170 | -38.12355 | 38990 ft | 442 kts | 36° |
| 2026-04-25 20:47 | -12.29169 | -38.08697 | 38985 ft | 442 kts | 36° |
| 2026-04-25 20:48 | -12.24154 | -38.05033 | 38990 ft | 442 kts | 36° |
| 2026-04-25 20:48 | -12.19146 | -38.01378 | 38990 ft | 442 kts | 36° |
| 2026-04-25 20:49 | -12.14134 | -37.97721 | 38987 ft | 442 kts | 36° |
| 2026-04-25 20:49 | -12.09153 | -37.94090 | 38987 ft | 442 kts | 36° |
| 2026-04-25 20:50 | -12.04138 | -37.90434 | 38988 ft | 442 kts | 36° |
| 2026-04-25 20:50 | -11.99126 | -37.86781 | 38988 ft | 442 kts | 36° |
| 2026-04-25 20:51 | -11.94101 | -37.83121 | 38985 ft | 442 kts | 36° |
| 2026-04-25 20:51 | -11.89119 | -37.79492 | 38985 ft | 442 kts | 35° |
| 2026-04-25 20:52 | -11.84919 | -37.76440 | 38987 ft | 442 kts | 35° |
| 2026-04-25 20:52 | -11.79092 | -37.72221 | 38984 ft | 442 kts | 35° |
| 2026-04-25 20:53 | -11.74079 | -37.68592 | 38981 ft | 442 kts | 35° |
| 2026-04-25 20:53 | -11.69064 | -37.64961 | 38979 ft | 441 kts | 35° |
| 2026-04-25 20:54 | -11.64057 | -37.61336 | 38973 ft | 441 kts | 35° |
| 2026-04-25 20:54 | -11.59054 | -37.57714 | 38984 ft | 441 kts | 35° |
| 2026-04-25 20:55 | -11.54053 | -37.54099 | 38982 ft | 440 kts | 35° |
| 2026-04-25 20:55 | -11.49087 | -37.50511 | 38979 ft | 440 kts | 35° |
| 2026-04-25 20:56 | -11.44091 | -37.46901 | 38976 ft | 440 kts | 35° |
| 2026-04-25 20:56 | -11.39103 | -37.43299 | 38975 ft | 439 kts | 35° |
| 2026-04-25 20:57 | -11.34114 | -37.39696 | 38972 ft | 439 kts | 34° |
| 2026-04-25 20:57 | -11.29131 | -37.36101 | 38971 ft | 439 kts | 34° |
| 2026-04-25 20:58 | -11.24169 | -37.32523 | 38967 ft | 439 kts | 34° |
| 2026-04-25 20:58 | -11.19187 | -37.28932 | 38959 ft | 439 kts | 34° |
| 2026-04-25 20:59 | -11.14205 | -37.25342 | 38952 ft | 439 kts | 34° |
| 2026-04-25 20:59 | -11.09209 | -37.21744 | 38948 ft | 439 kts | 34° |
| 2026-04-25 21:00 | -11.05907 | -37.19367 | 38944 ft | 439 kts | 34° |
| 2026-04-25 21:01 | -10.96770 | -37.12795 | 38939 ft | 439 kts | 34° |
| 2026-04-25 21:01 | -10.91774 | -37.09217 | 38938 ft | 439 kts | 34° |
| 2026-04-25 21:02 | -10.86788 | -37.05646 | 38749 ft | 435 kts | 34° |
| 2026-04-25 21:02 | -10.84324 | -37.03881 | 38234 ft | 434 kts | 34° |
| 2026-04-25 21:02 | -10.81841 | -37.02104 | 37544 ft | 435 kts | 35° |
| 2026-04-25 21:02 | -10.79351 | -37.00323 | 36691 ft | 439 kts | 35° |
| 2026-04-25 21:03 | -10.76838 | -36.98527 | 35824 ft | 444 kts | 36° |
| 2026-04-25 21:03 | -10.74285 | -36.96703 | 34948 ft | 450 kts | 36° |
| 2026-04-25 21:03 | -10.71716 | -36.94867 | 34179 ft | 453 kts | 36° |
| 2026-04-25 21:03 | -10.69131 | -36.93019 | 33339 ft | 456 kts | 37° |
| 2026-04-25 21:04 | -10.66560 | -36.91182 | 32491 ft | 458 kts | 37° |
| 2026-04-25 21:04 | -10.63944 | -36.89311 | 31606 ft | 462 kts | 37° |
| 2026-04-25 21:04 | -10.61308 | -36.87427 | 30733 ft | 465 kts | 37° |
| 2026-04-25 21:04 | -10.58645 | -36.85524 | 29922 ft | 467 kts | 37° |
| 2026-04-25 21:05 | -10.55999 | -36.83634 | 29275 ft | 462 kts | 37° |
| 2026-04-25 21:05 | -10.53387 | -36.81769 | 28684 ft | 456 kts | 37° |
| 2026-04-25 21:05 | -10.50804 | -36.79924 | 28060 ft | 452 kts | 37° |
| 2026-04-25 21:05 | -10.48237 | -36.78092 | 27452 ft | 447 kts | 37° |
| 2026-04-25 21:06 | -10.45705 | -36.76284 | 26850 ft | 443 kts | 37° |
| 2026-04-25 21:06 | -10.43193 | -36.74490 | 26262 ft | 439 kts | 37° |
| 2026-04-25 21:06 | -10.40702 | -36.72713 | 25683 ft | 435 kts | 37° |
| 2026-04-25 21:06 | -10.39898 | -36.72139 | 25499 ft | 434 kts | 37° |
| 2026-04-25 21:07 | -10.35817 | -36.69227 | 24584 ft | 428 kts | 37° |
| 2026-04-25 21:07 | -10.33393 | -36.67498 | 24043 ft | 424 kts | 37° |
| 2026-04-25 21:07 | -10.30992 | -36.65786 | 23507 ft | 420 kts | 37° |
| 2026-04-25 21:07 | -10.28612 | -36.64088 | 22943 ft | 415 kts | 37° |
| 2026-04-25 21:08 | -10.26264 | -36.62413 | 22357 ft | 411 kts | 37° |
| 2026-04-25 21:08 | -10.23936 | -36.60751 | 21772 ft | 407 kts | 36° |
| 2026-04-25 21:08 | -10.21633 | -36.59108 | 21198 ft | 403 kts | 36° |
| 2026-04-25 21:08 | -10.19347 | -36.57478 | 20646 ft | 399 kts | 36° |
| 2026-04-25 21:09 | -10.14856 | -36.54243 | 19555 ft | 392 kts | 39° |
| 2026-04-25 21:09 | -10.12752 | -36.52501 | 19050 ft | 388 kts | 40° |
| 2026-04-25 21:09 | -10.10672 | -36.50772 | 18520 ft | 385 kts | 39° |
| 2026-04-25 21:10 | -10.08608 | -36.49061 | 17976 ft | 381 kts | 39° |
| 2026-04-25 21:10 | -10.06562 | -36.47367 | 17384 ft | 378 kts | 39° |
| 2026-04-25 21:10 | -10.04547 | -36.45700 | 16784 ft | 376 kts | 39° |
| 2026-04-25 21:10 | -10.02522 | -36.44027 | 16183 ft | 375 kts | 40° |
| 2026-04-25 21:11 | -10.00504 | -36.42359 | 15608 ft | 373 kts | 40° |
| 2026-04-25 21:11 | -9.98500 | -36.40703 | 15075 ft | 370 kts | 40° |
| 2026-04-25 21:11 | -9.96512 | -36.39059 | 14550 ft | 368 kts | 40° |
| 2026-04-25 21:11 | -9.94538 | -36.37427 | 14023 ft | 365 kts | 40° |
| 2026-04-25 21:12 | -9.92569 | -36.35801 | 13478 ft | 363 kts | 40° |
| 2026-04-25 21:12 | -9.90619 | -36.34191 | 12945 ft | 360 kts | 40° |
| 2026-04-25 21:12 | -9.88682 | -36.32592 | 12415 ft | 357 kts | 40° |
| 2026-04-25 21:12 | -9.88039 | -36.32061 | 12238 ft | 356 kts | 40° |
| 2026-04-25 21:13 | -9.84860 | -36.29435 | 11381 ft | 352 kts | 40° |
| 2026-04-25 21:13 | -9.82962 | -36.27867 | 10879 ft | 349 kts | 40° |
| 2026-04-25 21:13 | -9.81113 | -36.26341 | 10405 ft | 347 kts | 40° |
| 2026-04-25 21:13 | -9.79268 | -36.24817 | 10231 ft | 334 kts | 40° |
| 2026-04-25 21:14 | -9.77505 | -36.23362 | 10106 ft | 320 kts | 40° |
| 2026-04-25 21:14 | -9.75813 | -36.21967 | 10000 ft | 306 kts | 40° |
| 2026-04-25 21:14 | -9.74189 | -36.20627 | 9805 ft | 298 kts | 41° |
| 2026-04-25 21:14 | -9.72589 | -36.19306 | 9409 ft | 295 kts | 41° |
| 2026-04-25 21:15 | -9.70999 | -36.17993 | 9004 ft | 294 kts | 41° |
| 2026-04-25 21:15 | -9.69417 | -36.16687 | 8617 ft | 292 kts | 41° |
| 2026-04-25 21:15 | -9.67845 | -36.15389 | 8217 ft | 291 kts | 41° |
| 2026-04-25 21:15 | -9.66285 | -36.14102 | 7835 ft | 289 kts | 41° |
| 2026-04-25 21:16 | -9.64726 | -36.12817 | 7464 ft | 287 kts | 41° |
| 2026-04-25 21:16 | -9.63181 | -36.11542 | 7104 ft | 285 kts | 41° |
| 2026-04-25 21:16 | -9.61666 | -36.10293 | 6740 ft | 284 kts | 41° |
| 2026-04-25 21:16 | -9.60135 | -36.09031 | 6378 ft | 283 kts | 41° |
| 2026-04-25 21:17 | -9.58611 | -36.07775 | 6030 ft | 280 kts | 42° |
| 2026-04-25 21:17 | -9.57101 | -36.06531 | 5664 ft | 279 kts | 42° |
| 2026-04-25 21:17 | -9.55599 | -36.05293 | 5248 ft | 279 kts | 42° |
| 2026-04-25 21:17 | -9.54610 | -36.04478 | 5082 ft | 276 kts | 42° |
| 2026-04-25 21:18 | -9.53129 | -36.03257 | 4791 ft | 272 kts | 42° |
| 2026-04-25 21:18 | -9.51652 | -36.02040 | 4539 ft | 274 kts | 42° |
| 2026-04-25 21:18 | -9.50188 | -36.00833 | 4291 ft | 269 kts | 42° |
| 2026-04-25 21:18 | -9.48767 | -35.99628 | 4038 ft | 262 kts | 49° |
| 2026-04-25 21:19 | -9.47875 | -35.98095 | 3786 ft | 248 kts | 78° |
| 2026-04-25 21:19 | -9.47837 | -35.96403 | 3553 ft | 238 kts | 103° |
| 2026-04-25 21:19 | -9.48259 | -35.94807 | 3302 ft | 232 kts | 119° |
| 2026-04-25 21:19 | -9.49317 | -35.93632 | 3066 ft | 225 kts | 146° |
| 2026-04-25 21:20 | -9.50618 | -35.92802 | 2963 ft | 214 kts | 148° |
| 2026-04-25 21:20 | -9.51440 | -35.92288 | 2965 ft | 204 kts | 148° |
| 2026-04-25 21:20 | -9.53025 | -35.91305 | 2970 ft | 203 kts | 148° |
| 2026-04-25 21:20 | -9.54225 | -35.90563 | 2966 ft | 202 kts | 148° |
| 2026-04-25 21:21 | -9.55428 | -35.89819 | 2962 ft | 202 kts | 148° |
| 2026-04-25 21:21 | -9.56638 | -35.89072 | 3018 ft | 205 kts | 148° |
| 2026-04-25 21:21 | -9.57860 | -35.88316 | 3503 ft | 206 kts | 148° |
| 2026-04-25 21:21 | -9.59070 | -35.87563 | 3863 ft | 204 kts | 148° |
| 2026-04-25 21:22 | -9.60278 | -35.86810 | 3983 ft | 204 kts | 148° |
| 2026-04-25 21:22 | -9.61490 | -35.86058 | 3994 ft | 204 kts | 148° |
| 2026-04-25 21:22 | -9.62699 | -35.85317 | 3990 ft | 203 kts | 153° |
| 2026-04-25 21:22 | -9.64068 | -35.84947 | 3991 ft | 207 kts | 180° |
| 2026-04-25 21:23 | -9.65474 | -35.85265 | 4009 ft | 211 kts | 205° |
| 2026-04-25 21:23 | -9.66650 | -35.86170 | 3998 ft | 216 kts | 227° |
| 2026-04-25 21:23 | -9.67280 | -35.87561 | 4006 ft | 224 kts | 261° |
| 2026-04-25 21:23 | -9.67042 | -35.89122 | 4010 ft | 229 kts | 296° |
| 2026-04-25 21:24 | -9.66030 | -35.90352 | 4009 ft | 230 kts | 319° |
| 2026-04-25 21:24 | -9.64816 | -35.91404 | 4005 ft | 230 kts | 320° |
| 2026-04-25 21:24 | -9.63477 | -35.92272 | 4013 ft | 229 kts | 338° |
| 2026-04-25 21:24 | -9.61973 | -35.92812 | 4007 ft | 230 kts | 344° |
| 2026-04-25 21:25 | -9.60445 | -35.93293 | 3994 ft | 228 kts | 344° |
| 2026-04-25 21:25 | -9.58968 | -35.93799 | 3856 ft | 227 kts | 342° |
| 2026-04-25 21:25 | -9.57494 | -35.94358 | 3572 ft | 226 kts | 340° |
| 2026-04-25 21:25 | -9.56027 | -35.94950 | 3273 ft | 227 kts | 339° |
| 2026-04-25 21:26 | -9.54558 | -35.95560 | 2981 ft | 227 kts | 339° |
| 2026-04-25 21:26 | -9.53113 | -35.96166 | 2687 ft | 221 kts | 339° |
| 2026-04-25 21:26 | -9.51687 | -35.96650 | 2328 ft | 208 kts | 355° |
| 2026-04-25 21:26 | -9.50241 | -35.96454 | 2209 ft | 214 kts | 26° |
| 2026-04-25 21:27 | -9.49062 | -35.95560 | 2272 ft | 211 kts | 56° |
| 2026-04-25 21:27 | -9.48520 | -35.94252 | 2351 ft | 204 kts | 85° |
| 2026-04-25 21:27 | -9.48534 | -35.92824 | 2424 ft | 203 kts | 99° |
| 2026-04-25 21:27 | -9.48781 | -35.91421 | 2485 ft | 203 kts | 104° |
| 2026-04-25 21:28 | -9.49056 | -35.90011 | 2284 ft | 201 kts | 102° |
| 2026-04-25 21:28 | -9.49305 | -35.88681 | 1989 ft | 182 kts | 103° |
| 2026-04-25 21:28 | -9.49526 | -35.87482 | 1755 ft | 164 kts | 104° |
| 2026-04-25 21:28 | -9.49726 | -35.86414 | 1559 ft | 147 kts | 103° |
| 2026-04-25 21:29 | -9.49907 | -35.85445 | 1364 ft | 129 kts | 104° |
| 2026-04-25 21:29 | -9.50076 | -35.84546 | 1220 ft | 133 kts | 102° |
| 2026-04-25 21:29 | -9.50245 | -35.83640 | 1057 ft | 127 kts | 102° |
| 2026-04-25 21:29 | -9.50412 | -35.82750 | 894 ft | 130 kts | 102° |
| 2026-04-25 21:30 | -9.50575 | -35.81870 | 730 ft | 125 kts | 101° |
| 2026-04-25 21:30 | -9.50739 | -35.80994 | 553 ft | 127 kts | 101° |
| 2026-04-25 21:30 | -9.50902 | -35.80115 | 399 ft | 122 kts | 101° |
| 2026-04-25 21:30 | -9.51005 | -35.79598 | 392 ft | 104 kts | 101° |
| 2026-04-25 21:31 | -9.51137 | -35.78975 | 382 ft | 28 kts | 114° |
| 2026-04-25 21:31 | -9.51252 | -35.78824 | 382 ft | 25 kts | 148° |
| 2026-04-25 21:31 | -9.51291 | -35.78822 | 382 ft | 3 kts | 224° |
| 2026-04-25 21:31 | -9.51296 | -35.78889 | 383 ft | 16 kts | 279° |
| 2026-04-25 21:32 | -9.51315 | -35.79008 | 384 ft | 19 kts | 216° |
| 2026-04-25 21:32 | -9.51350 | -35.79100 | 385 ft | 14 kts | 278° |
| 2026-04-25 21:32 | -9.51340 | -35.79182 | 386 ft | 6 kts | 244° |
| 2026-04-25 21:32 | -9.51382 | -35.79203 | 386 ft | 7 kts | 194° |
| 2026-04-25 21:33 | -9.51392 | -35.79205 | 386 ft | 0 kts | 195° |